createdAt,value
2018-10-17T08:02:24.541Z,13.20
2018-10-17T08:03:25.659Z,13.50
2018-10-17T09:49:20.422Z,18.00
2018-10-17T09:50:20.436Z,20.30
2018-10-17T09:51:20.455Z,19.90
2018-10-17T09:52:20.426Z,22.00
2018-10-17T09:53:20.505Z,19.50
2018-10-17T09:54:20.400Z,20.60
2018-10-17T09:55:20.516Z,19.20
2018-10-17T09:56:20.414Z,19.70
2018-10-17T09:57:20.368Z,18.70
2018-10-17T09:58:20.391Z,19.80
2018-10-17T09:59:20.375Z,18.10
2018-10-17T10:00:20.473Z,19.70
2018-10-17T10:01:20.384Z,18.60
2018-10-17T10:02:21.424Z,19.10
2018-10-17T10:03:20.328Z,19.00
2018-10-17T10:04:20.300Z,18.50
2018-10-17T10:05:20.316Z,19.30
2018-10-17T10:06:20.268Z,19.20
2018-10-17T10:07:20.335Z,19.30
2018-10-17T10:08:20.283Z,17.00
2018-10-17T10:09:20.248Z,18.40
2018-10-17T10:10:20.261Z,17.40
2018-10-17T10:11:20.121Z,16.80
2018-10-17T10:12:20.306Z,18.60
2018-10-17T10:13:20.215Z,17.20
2018-10-17T10:14:20.215Z,17.60
2018-10-17T10:15:20.163Z,16.20
2018-10-17T10:16:20.198Z,16.20
2018-10-17T10:17:20.294Z,14.10
2018-10-17T10:18:20.213Z,13.20
2018-10-17T10:19:20.156Z,14.90
2018-10-17T10:20:20.037Z,15.00
2018-10-17T10:21:20.164Z,15.00
2018-10-17T10:22:20.122Z,13.50
2018-10-17T10:23:20.214Z,14.60
2018-10-17T10:24:20.225Z,11.40
2018-10-17T10:25:20.146Z,11.20
2018-10-17T10:26:20.088Z,11.90
2018-10-17T10:27:20.065Z,13.10
2018-10-17T10:28:20.079Z,10.30
2018-10-17T10:29:20.118Z,10.20
2018-10-17T10:30:20.095Z,10.70
2018-10-17T10:31:19.996Z,10.20
2018-10-17T10:32:19.982Z,11.30
2018-10-17T10:33:20.017Z,10.80
2018-10-17T10:34:20.016Z,10.30
2018-10-17T10:35:20.048Z,11.10
2018-10-17T10:36:19.967Z,9.40
2018-10-17T10:37:19.957Z,9.10
2018-10-17T10:38:19.925Z,10.20
2018-10-17T10:39:19.950Z,9.80
2018-10-17T10:40:19.907Z,9.70
2018-10-17T10:41:20.012Z,9.00
2018-10-17T10:42:19.905Z,10.60
2018-10-17T10:43:19.941Z,10.10
2018-10-17T10:44:20.047Z,10.40
2018-10-17T10:45:19.939Z,10.40
2018-10-17T10:46:19.839Z,10.50
2018-10-17T10:47:19.894Z,10.50
2018-10-17T10:48:19.831Z,11.20
2018-10-17T10:49:19.951Z,11.10
2018-10-17T10:50:19.920Z,10.20
2018-10-17T10:51:19.933Z,10.60
2018-10-17T10:52:19.857Z,11.30
2018-10-17T10:53:19.819Z,11.60
2018-10-17T10:54:19.896Z,11.20
2018-10-17T10:55:19.762Z,11.50
2018-10-17T10:56:19.802Z,10.50
2018-10-17T10:57:19.735Z,10.40
2018-10-17T10:58:19.959Z,10.30
2018-10-17T10:59:19.864Z,10.50
2018-10-17T11:00:19.771Z,13.10
2018-10-17T11:01:19.705Z,9.60
2018-10-17T11:02:19.669Z,11.90
2018-10-17T11:03:20.684Z,12.50
2018-10-17T11:04:19.733Z,10.00
2018-10-17T11:05:19.713Z,13.00
2018-10-17T11:06:19.633Z,10.90
2018-10-17T11:07:19.643Z,9.10
2018-10-17T11:08:19.659Z,9.00
2018-10-17T11:09:19.680Z,10.10
2018-10-17T11:10:19.621Z,10.40
2018-10-17T11:11:20.652Z,9.00
2018-10-17T11:12:19.559Z,11.20
2018-10-17T11:13:19.475Z,9.40
2018-10-17T11:14:19.701Z,10.70
2018-10-17T11:15:19.855Z,10.90
2018-10-17T11:16:19.533Z,9.60
2018-10-17T11:17:19.535Z,9.80
2018-10-17T11:18:19.543Z,11.40
2018-10-17T11:19:19.513Z,9.70
2018-10-17T11:20:19.543Z,9.60
2018-10-17T11:21:19.392Z,12.10
2018-10-17T11:22:19.522Z,9.90
2018-10-17T11:23:19.590Z,9.20
2018-10-17T11:24:19.480Z,10.40
2018-10-17T11:25:19.417Z,9.80
2018-10-17T11:26:19.552Z,11.10
2018-10-17T11:27:19.589Z,12.80
2018-10-17T11:28:19.406Z,10.90
2018-10-17T11:29:19.337Z,10.30
2018-10-17T11:30:19.420Z,10.90
2018-10-17T11:31:19.503Z,10.30
2018-10-17T11:32:19.359Z,11.10
2018-10-17T11:33:19.459Z,9.70
2018-10-17T11:34:19.373Z,11.60
2018-10-17T11:35:19.522Z,12.00
2018-10-17T11:36:19.400Z,10.10
2018-10-17T11:37:19.328Z,10.10
2018-10-17T11:38:19.339Z,9.40
2018-10-17T11:39:19.268Z,10.90
2018-10-17T11:40:19.423Z,10.70
2018-10-17T11:41:19.392Z,13.00
2018-10-17T11:42:19.337Z,13.30
2018-10-17T11:43:19.280Z,13.20
2018-10-17T11:44:19.221Z,13.50
2018-10-17T11:45:20.257Z,13.80
2018-10-17T11:46:19.234Z,11.10
2018-10-17T11:47:20.245Z,11.90
2018-10-17T11:48:19.347Z,9.80
2018-10-17T11:49:19.169Z,9.50
2018-10-17T11:50:19.178Z,11.90
2018-10-17T11:51:19.267Z,12.00
2018-10-17T11:52:19.142Z,9.90
2018-10-17T11:53:19.145Z,11.30
2018-10-17T11:54:19.206Z,13.30
2018-10-17T11:55:19.141Z,12.40
2018-10-17T11:56:18.999Z,9.60
2018-10-17T11:57:19.175Z,9.70
2018-10-17T11:58:19.102Z,9.80
2018-10-17T11:59:19.283Z,11.30
2018-10-17T12:00:19.058Z,12.70
2018-10-17T12:01:19.077Z,11.00
2018-10-17T12:02:19.066Z,9.00
2018-10-17T12:03:19.226Z,11.20
2018-10-17T12:04:19.234Z,13.80
2018-10-17T12:05:19.311Z,10.90
2018-10-17T12:06:19.151Z,27.40
2018-10-17T12:07:19.973Z,24.50
2018-10-17T12:08:20.155Z,19.70
2018-10-17T12:09:19.052Z,15.50
2018-10-17T12:10:18.989Z,12.00
2018-10-17T12:11:20.243Z,10.80
2018-10-17T12:12:19.010Z,11.80
2018-10-17T12:13:18.963Z,11.80
2018-10-17T12:14:18.945Z,9.40
2018-10-17T12:15:19.024Z,10.10
2018-10-17T12:16:18.876Z,10.60
2018-10-17T12:17:18.942Z,9.50
2018-10-17T12:18:19.871Z,11.30
2018-10-17T12:19:19.887Z,10.90
2018-10-17T12:20:18.879Z,9.60
2018-10-17T12:21:18.770Z,10.80
2018-10-17T12:22:18.807Z,10.80
2018-10-17T12:23:18.908Z,10.70
2018-10-17T12:24:18.786Z,13.90
2018-10-17T12:25:18.682Z,12.30
2018-10-17T12:26:18.681Z,10.00
2018-10-17T12:27:18.804Z,12.20
2018-10-17T12:28:18.895Z,9.60
2018-10-17T12:29:18.737Z,12.40
2018-10-17T12:30:18.801Z,12.40
2018-10-17T12:31:18.754Z,12.20
2018-10-17T12:32:18.743Z,13.50
2018-10-17T12:33:18.813Z,13.30
2018-10-17T12:34:18.792Z,9.40
2018-10-17T12:35:18.815Z,12.10
2018-10-17T12:36:18.694Z,11.30
2018-10-17T12:37:18.642Z,12.20
2018-10-17T12:38:18.674Z,14.50
2018-10-17T12:39:18.734Z,11.40
2018-10-17T12:40:18.740Z,10.70
2018-10-17T12:41:18.699Z,11.20
2018-10-17T12:42:18.600Z,16.20
2018-10-17T12:43:18.589Z,12.30
2018-10-17T12:44:18.671Z,15.20
2018-10-17T12:45:18.749Z,13.10
2018-10-17T12:46:18.647Z,14.70
2018-10-17T12:47:18.647Z,15.30
2018-10-17T12:48:18.568Z,11.00
2018-10-17T12:49:18.562Z,12.90
2018-10-17T12:50:19.670Z,11.50
2018-10-17T12:51:18.404Z,10.90
2018-10-17T12:52:18.638Z,10.90
2018-10-17T12:53:18.512Z,12.70
2018-10-17T12:54:18.499Z,11.60
2018-10-17T12:55:18.562Z,12.10
2018-10-17T12:56:18.421Z,13.10
2018-10-17T12:57:18.602Z,11.50
2018-10-17T12:58:18.488Z,11.80
2018-10-17T12:59:18.557Z,10.40
2018-10-17T13:00:18.402Z,13.20
2018-10-17T13:01:18.511Z,12.60
2018-10-17T13:02:18.423Z,12.60
2018-10-17T13:03:18.475Z,12.60
2018-10-17T13:04:18.390Z,11.80
2018-10-17T13:05:18.362Z,12.00
2018-10-17T13:06:18.344Z,11.90
2018-10-17T13:07:18.353Z,11.50
2018-10-17T13:08:18.218Z,13.60
2018-10-17T13:09:18.384Z,13.10
2018-10-17T13:10:18.318Z,11.80
2018-10-17T13:11:18.430Z,14.40
2018-10-17T13:12:18.277Z,11.50
2018-10-17T13:13:18.414Z,11.40
2018-10-17T13:14:18.289Z,10.50
2018-10-17T13:15:18.396Z,13.40
2018-10-17T13:16:18.269Z,14.60
2018-10-17T13:17:19.224Z,12.10
2018-10-17T13:18:18.220Z,11.80
2018-10-17T13:19:18.370Z,10.50
2018-10-17T13:20:18.213Z,15.00
2018-10-17T13:21:18.135Z,13.30
2018-10-17T13:22:19.222Z,16.30
2018-10-17T13:23:18.189Z,13.10
2018-10-17T13:24:18.146Z,13.20
2018-10-17T13:25:18.041Z,13.60
2018-10-17T13:26:18.032Z,17.40
2018-10-17T13:27:18.393Z,14.30
2018-10-17T13:28:19.176Z,13.20
2018-10-17T13:29:18.112Z,13.60
2018-10-17T13:30:18.098Z,12.60
2018-10-17T13:31:18.170Z,13.80
2018-10-17T13:32:18.083Z,16.20
2018-10-17T13:33:18.155Z,18.00
2018-10-17T13:34:18.137Z,13.20
2018-10-17T13:35:18.165Z,13.90
2018-10-17T13:36:18.031Z,15.30
2018-10-17T13:37:18.128Z,13.40
2018-10-17T13:38:18.021Z,17.20
2018-10-17T13:39:18.171Z,14.20
2018-10-17T13:40:17.982Z,13.50
2018-10-17T13:41:18.083Z,14.60
2018-10-17T13:42:18.141Z,14.50
2018-10-17T13:43:18.200Z,17.10
2018-10-17T13:44:17.928Z,13.20
2018-10-17T13:45:17.999Z,17.60
2018-10-17T13:46:17.986Z,16.50
2018-10-17T13:47:17.848Z,13.60
2018-10-17T13:48:17.888Z,16.30
2018-10-17T13:49:18.059Z,17.00
2018-10-17T13:50:17.919Z,13.10
2018-10-17T13:51:17.930Z,16.20
2018-10-17T13:52:17.877Z,14.70
2018-10-17T13:53:17.946Z,14.60
2018-10-17T13:54:17.825Z,13.50
2018-10-17T13:55:17.919Z,14.40
2018-10-17T13:56:18.513Z,13.50
2018-10-17T13:57:17.893Z,14.40
2018-10-17T13:58:17.816Z,12.40
2018-10-17T13:59:17.780Z,13.50
2018-10-17T14:00:17.696Z,14.10
2018-10-17T14:01:17.731Z,11.10
2018-10-17T14:02:17.642Z,12.70
2018-10-17T14:03:17.709Z,12.80
2018-10-17T14:04:17.759Z,11.80
2018-10-17T14:05:17.623Z,13.10
2018-10-17T14:06:17.737Z,12.90
2018-10-17T14:07:17.815Z,11.40
2018-10-17T14:08:17.674Z,11.30
2018-10-17T14:09:17.932Z,13.10
2018-10-17T14:10:17.659Z,11.70
2018-10-17T14:11:17.600Z,12.10
2018-10-17T14:12:17.736Z,13.10
2018-10-17T14:13:17.710Z,12.40
2018-10-17T14:14:17.619Z,14.00
2018-10-17T14:15:17.857Z,14.50
2018-10-17T14:16:17.513Z,12.20
2018-10-17T14:17:17.591Z,13.00
2018-10-17T14:18:17.577Z,11.80
2018-10-17T14:19:17.610Z,12.10
2018-10-17T14:20:17.567Z,11.90
2018-10-17T14:21:17.582Z,12.00
2018-10-17T14:22:17.550Z,10.80
2018-10-17T14:23:17.595Z,10.60
2018-10-17T14:24:17.632Z,12.30
2018-10-17T14:25:17.501Z,11.20
2018-10-17T14:26:17.386Z,14.60
2018-10-17T14:27:17.655Z,18.20
2018-10-17T14:28:17.495Z,11.60
2018-10-17T14:29:17.458Z,14.50
2018-10-17T14:30:17.497Z,13.90
2018-10-17T14:31:18.351Z,23.40
2018-10-17T14:32:17.535Z,14.10
2018-10-17T14:33:17.770Z,15.50
2018-10-17T14:34:17.426Z,14.10
2018-10-17T14:35:17.434Z,12.30
2018-10-17T14:36:17.345Z,12.40
2018-10-17T14:37:17.425Z,12.30
2018-10-17T14:38:17.430Z,16.10
2018-10-17T14:39:17.414Z,15.00
2018-10-17T14:40:17.335Z,10.90
2018-10-17T14:41:17.352Z,12.10
2018-10-17T14:42:17.412Z,10.60
2018-10-17T14:43:17.307Z,11.20
2018-10-17T14:44:17.380Z,12.40
2018-10-17T14:45:17.352Z,13.80
2018-10-17T14:46:17.201Z,11.60
2018-10-17T14:47:17.308Z,11.60
2018-10-17T14:48:17.412Z,13.20
2018-10-17T14:49:17.159Z,11.10
2018-10-17T14:50:17.301Z,12.20
2018-10-17T14:51:17.168Z,11.20
2018-10-17T14:52:17.249Z,13.30
2018-10-17T14:53:17.288Z,11.40
2018-10-17T14:54:17.237Z,11.50
2018-10-17T14:55:17.223Z,10.60
2018-10-17T14:56:17.387Z,12.10
2018-10-17T14:57:17.276Z,14.10
2018-10-17T14:58:17.066Z,11.90
2018-10-17T14:59:17.292Z,12.00
2018-10-17T15:00:17.160Z,12.40
2018-10-17T15:01:17.039Z,11.70
2018-10-17T15:02:17.215Z,12.60
2018-10-17T15:03:17.198Z,15.20
2018-10-17T15:04:17.085Z,13.40
2018-10-17T15:05:17.268Z,15.00
2018-10-17T15:06:16.977Z,14.70
2018-10-17T15:07:17.059Z,13.00
2018-10-17T15:08:17.143Z,11.60
2018-10-17T15:09:17.112Z,12.30
2018-10-17T15:10:17.106Z,11.70
2018-10-17T15:11:17.047Z,13.00
2018-10-17T15:12:17.019Z,12.90
2018-10-17T15:13:17.014Z,12.80
2018-10-17T15:14:17.077Z,13.00
2018-10-17T15:15:17.139Z,13.60
2018-10-17T15:16:16.865Z,13.50
2018-10-17T15:17:16.862Z,13.60
2018-10-17T15:18:17.006Z,15.40
2018-10-17T15:19:16.928Z,17.30
2018-10-17T15:20:16.889Z,17.30
2018-10-17T15:21:16.872Z,17.00
2018-10-17T15:22:16.905Z,19.50
2018-10-17T15:23:16.950Z,19.40
2018-10-17T15:24:16.938Z,22.80
2018-10-17T15:25:16.891Z,19.20
2018-10-17T15:26:16.847Z,20.80
2018-10-17T15:27:17.064Z,20.40
2018-10-17T15:28:16.870Z,20.80
2018-10-17T15:29:16.824Z,22.60
2018-10-17T15:30:16.986Z,23.40
2018-10-17T15:31:16.800Z,23.50
2018-10-17T15:32:16.783Z,23.90
2018-10-17T15:33:16.904Z,24.90
2018-10-17T15:34:16.874Z,24.70
2018-10-17T15:35:16.749Z,23.60
2018-10-17T15:36:16.690Z,25.40
2018-10-17T15:37:16.807Z,25.40
2018-10-17T15:38:16.626Z,25.40
2018-10-17T15:39:16.870Z,28.20
2018-10-17T15:40:16.702Z,27.30
2018-10-17T15:41:16.592Z,28.00
2018-10-17T15:42:16.730Z,28.30
2018-10-17T15:43:16.791Z,28.50
2018-10-17T15:44:16.686Z,27.40
2018-10-17T15:45:16.704Z,27.90
2018-10-17T15:46:16.556Z,28.70
2018-10-17T15:47:16.661Z,27.80
2018-10-17T15:48:16.804Z,29.80
2018-10-17T15:49:16.708Z,29.10
2018-10-17T15:50:16.571Z,30.70
2018-10-17T15:51:16.561Z,30.70
2018-10-17T15:52:16.578Z,29.30
2018-10-17T15:53:16.773Z,28.40
2018-10-17T15:54:16.751Z,33.90
2018-10-17T15:55:16.613Z,32.80
2018-10-17T15:56:16.419Z,30.40
2018-10-17T15:57:16.462Z,35.80
2018-10-17T15:58:16.402Z,30.20
2018-10-17T15:59:16.510Z,29.10
2018-10-17T16:00:16.595Z,30.80
2018-10-17T16:01:16.425Z,31.20
2018-10-17T16:02:16.621Z,31.00
2018-10-17T16:03:16.445Z,30.40
2018-10-17T16:04:16.441Z,35.30
2018-10-17T16:05:16.504Z,34.10
2018-10-17T16:06:16.356Z,35.50
2018-10-17T16:07:16.505Z,32.80
2018-10-17T16:08:16.516Z,31.40
2018-10-17T16:09:16.414Z,31.90
2018-10-17T16:10:16.397Z,36.20
2018-10-17T16:11:16.331Z,42.20
2018-10-17T16:12:16.458Z,35.70
2018-10-17T16:13:16.411Z,40.00
2018-10-17T16:14:16.433Z,32.40
2018-10-17T16:15:16.342Z,35.50
2018-10-17T16:16:16.211Z,37.20
2018-10-17T16:17:16.430Z,40.00
2018-10-17T16:18:16.422Z,36.80
2018-10-17T16:19:16.390Z,39.00
2018-10-17T16:20:16.421Z,44.20
2018-10-17T16:21:16.165Z,45.40
2018-10-17T16:22:16.281Z,47.30
2018-10-17T16:23:16.384Z,54.90
2018-10-17T16:24:16.879Z,46.60
2018-10-17T16:25:16.285Z,41.50
2018-10-17T16:26:16.156Z,40.20
2018-10-17T16:27:16.200Z,38.30
2018-10-17T16:28:16.213Z,38.00
2018-10-17T16:29:16.244Z,36.80
2018-10-17T16:30:16.209Z,39.40
2018-10-17T16:31:16.182Z,34.90
2018-10-17T16:32:16.274Z,37.70
2018-10-17T16:33:16.147Z,35.60
2018-10-17T16:34:16.141Z,34.10
2018-10-17T16:35:16.185Z,34.10
2018-10-17T16:36:16.137Z,35.10
2018-10-17T16:37:16.141Z,38.10
2018-10-17T16:38:16.156Z,39.70
2018-10-17T16:39:16.083Z,39.10
2018-10-17T16:40:16.070Z,40.20
2018-10-17T16:41:16.005Z,41.40
2018-10-17T16:42:16.114Z,37.20
2018-10-17T16:43:16.041Z,40.10
2018-10-17T16:44:16.088Z,42.20
2018-10-17T16:45:16.036Z,46.50
2018-10-17T16:46:15.886Z,43.90
2018-10-17T16:47:16.061Z,38.90
2018-10-17T16:48:16.082Z,40.10
2018-10-17T16:49:15.978Z,38.10
2018-10-17T16:50:16.086Z,38.00
2018-10-17T16:51:15.830Z,39.20
2018-10-17T16:52:15.967Z,38.70
2018-10-17T16:53:15.973Z,38.40
2018-10-17T16:54:16.002Z,39.80
2018-10-17T16:55:15.913Z,43.60
2018-10-17T16:56:15.763Z,39.80
2018-10-17T16:57:15.949Z,41.90
2018-10-17T16:58:15.882Z,40.60
2018-10-17T16:59:15.911Z,40.30
2018-10-17T17:00:15.997Z,40.40
2018-10-17T17:01:15.721Z,40.80
2018-10-17T17:02:15.834Z,39.50
2018-10-17T17:03:15.941Z,39.70
2018-10-17T17:04:16.681Z,41.90
2018-10-17T17:05:15.826Z,40.40
2018-10-17T17:06:16.749Z,41.00
2018-10-17T17:07:15.841Z,41.00
2018-10-17T17:08:15.751Z,40.90
2018-10-17T17:09:15.876Z,42.30
2018-10-17T17:10:15.802Z,41.00
2018-10-17T17:11:15.614Z,41.40
2018-10-17T17:12:15.710Z,39.80
2018-10-17T17:13:15.724Z,41.20
2018-10-17T17:14:15.708Z,41.50
2018-10-17T17:15:15.823Z,41.10
2018-10-17T17:16:15.718Z,41.20
2018-10-17T17:17:15.662Z,42.60
2018-10-17T17:18:15.785Z,41.60
2018-10-17T17:19:15.643Z,44.20
2018-10-17T17:20:15.633Z,46.20
2018-10-17T17:21:15.650Z,47.00
2018-10-17T17:22:15.532Z,46.80
2018-10-17T17:23:15.478Z,51.30
2018-10-17T17:24:15.593Z,49.80
2018-10-17T17:25:15.572Z,44.90
2018-10-17T17:26:15.441Z,44.90
2018-10-17T17:27:15.651Z,43.60
2018-10-17T17:28:15.608Z,42.80
2018-10-17T17:29:15.542Z,46.50
2018-10-17T17:30:15.602Z,42.30
2018-10-17T17:31:15.397Z,42.30
2018-10-17T17:32:15.518Z,42.90
2018-10-17T17:33:15.560Z,42.50
2018-10-17T17:34:15.559Z,42.30
2018-10-17T17:35:15.465Z,43.00
2018-10-17T17:36:15.347Z,41.60
2018-10-17T17:37:15.472Z,41.70
2018-10-17T17:38:15.447Z,41.70
2018-10-17T17:39:15.433Z,42.60
2018-10-17T17:40:15.585Z,42.20
2018-10-17T17:41:15.285Z,43.60
2018-10-17T17:42:15.403Z,42.00
2018-10-17T17:43:15.390Z,43.10
2018-10-17T17:44:15.381Z,44.80
2018-10-17T17:45:15.359Z,42.00
2018-10-17T17:46:15.320Z,42.10
2018-10-17T17:47:15.216Z,42.40
2018-10-17T17:48:15.339Z,43.20
2018-10-17T17:49:15.329Z,42.60
2018-10-17T17:50:15.309Z,43.10
2018-10-17T17:51:15.169Z,42.90
2018-10-17T17:52:15.808Z,43.00
2018-10-17T17:53:15.276Z,42.10
2018-10-17T17:54:15.257Z,43.00
2018-10-17T17:55:15.227Z,42.70
2018-10-17T17:56:15.112Z,44.50
2018-10-17T17:57:15.233Z,41.00
2018-10-17T17:58:15.355Z,42.00
2018-10-17T17:59:15.197Z,42.40
2018-10-17T18:00:15.192Z,43.80
2018-10-17T18:01:15.069Z,44.10
2018-10-17T18:02:15.155Z,43.10
2018-10-17T18:03:15.165Z,42.60
2018-10-17T18:04:15.307Z,43.30
2018-10-17T18:05:15.159Z,43.70
2018-10-17T18:06:15.021Z,43.10
2018-10-17T18:07:15.153Z,43.50
2018-10-17T18:08:15.111Z,42.40
2018-10-17T18:09:15.099Z,44.20
2018-10-17T18:10:15.212Z,41.90
2018-10-17T18:11:14.957Z,43.40
2018-10-17T18:12:15.063Z,41.70
2018-10-17T18:13:15.064Z,41.80
2018-10-17T18:14:15.077Z,43.20
2018-10-17T18:15:15.040Z,43.20
2018-10-17T18:16:15.038Z,42.30
2018-10-17T18:17:15.015Z,44.70
2018-10-17T18:18:15.010Z,42.40
2018-10-17T18:19:14.974Z,47.60
2018-10-17T18:20:14.970Z,44.30
2018-10-17T18:21:14.851Z,43.80
2018-10-17T18:22:14.895Z,45.40
2018-10-17T18:23:14.958Z,43.90
2018-10-17T18:24:14.814Z,45.40
2018-10-17T18:25:14.935Z,43.90
2018-10-17T18:26:14.784Z,43.90
2018-10-17T18:27:14.910Z,44.00
2018-10-17T18:28:14.933Z,42.70
2018-10-17T18:29:14.892Z,45.10
2018-10-17T18:30:14.872Z,43.50
2018-10-17T18:31:14.739Z,43.30
2018-10-17T18:32:14.861Z,46.70
2018-10-17T18:33:14.862Z,45.40
2018-10-17T18:34:15.155Z,44.60
2018-10-17T18:35:14.834Z,46.30
2018-10-17T18:36:14.695Z,45.30
2018-10-17T18:37:14.836Z,44.60
2018-10-17T18:38:14.964Z,46.50
2018-10-17T18:39:14.777Z,45.60
2018-10-17T18:40:15.089Z,47.40
2018-10-17T18:41:14.638Z,43.70
2018-10-17T18:42:14.739Z,46.00
2018-10-17T18:43:14.740Z,45.10
2018-10-17T18:44:14.795Z,45.30
2018-10-17T18:45:14.716Z,44.80
2018-10-17T18:46:14.556Z,46.20
2018-10-17T18:47:14.687Z,48.10
2018-10-17T18:48:14.704Z,47.80
2018-10-17T18:49:14.670Z,46.20
2018-10-17T18:50:14.726Z,46.80
2018-10-17T18:51:14.707Z,44.70
2018-10-17T18:52:14.674Z,46.60
2018-10-17T18:53:14.618Z,45.90
2018-10-17T18:54:14.607Z,47.90
2018-10-17T18:55:14.591Z,49.80
2018-10-17T18:56:14.593Z,53.80
2018-10-17T18:57:14.629Z,48.60
2018-10-17T18:58:14.569Z,52.20
2018-10-17T18:59:14.544Z,51.20
2018-10-17T19:00:14.542Z,53.80
2018-10-17T19:01:14.460Z,56.20
2018-10-17T19:02:14.534Z,52.20
2018-10-17T19:03:14.578Z,50.90
2018-10-17T19:04:14.517Z,50.90
2018-10-17T19:05:14.448Z,52.20
2018-10-17T19:06:14.357Z,55.20
2018-10-17T19:07:14.562Z,55.30
2018-10-17T19:08:14.510Z,55.50
2018-10-17T19:09:15.546Z,51.40
2018-10-17T19:10:14.430Z,52.20
2018-10-17T19:11:14.291Z,53.00
2018-10-17T19:12:14.408Z,52.90
2018-10-17T19:13:14.490Z,51.80
2018-10-17T19:14:14.411Z,57.40
2018-10-17T19:15:15.523Z,56.40
2018-10-17T19:16:14.351Z,62.70
2018-10-17T19:17:14.454Z,61.60
2018-10-17T19:18:14.201Z,60.60
2018-10-17T19:19:14.388Z,59.20
2018-10-17T19:20:14.294Z,60.70
2018-10-17T19:21:14.267Z,62.20
2018-10-17T19:22:14.378Z,62.00
2018-10-17T19:23:14.291Z,66.90
2018-10-17T19:24:14.297Z,59.90
2018-10-17T19:25:14.327Z,65.20
2018-10-17T19:26:14.126Z,64.60
2018-10-17T19:27:17.285Z,66.40
2018-10-17T19:28:14.234Z,68.00
2018-10-17T19:29:15.230Z,63.80
2018-10-17T19:30:14.250Z,64.60
2018-10-17T19:31:14.135Z,64.10
2018-10-17T19:32:15.217Z,64.30
2018-10-17T19:33:14.344Z,66.00
2018-10-17T19:34:14.197Z,63.70
2018-10-17T19:35:14.169Z,70.50
2018-10-17T19:36:14.021Z,65.60
2018-10-17T19:37:14.275Z,67.00
2018-10-17T19:38:14.130Z,68.70
2018-10-17T19:39:14.176Z,66.40
2018-10-17T19:40:17.129Z,65.70
2018-10-17T19:41:13.964Z,68.10
2018-10-17T19:42:14.441Z,67.50
2018-10-17T19:43:14.056Z,66.00
2018-10-17T19:44:14.058Z,66.90
2018-10-17T19:45:14.163Z,67.40
2018-10-17T19:46:14.053Z,67.90
2018-10-17T19:47:15.231Z,69.00
2018-10-17T19:48:15.107Z,71.70
2018-10-17T19:49:14.002Z,73.90
2018-10-17T19:50:15.035Z,70.50
2018-10-17T19:51:14.938Z,71.60
2018-10-17T19:52:13.964Z,73.00
2018-10-17T19:53:14.088Z,71.90
2018-10-17T19:54:14.911Z,73.50
2018-10-17T19:55:14.023Z,74.90
2018-10-17T19:56:13.786Z,72.10
2018-10-17T19:57:17.020Z,71.60
2018-10-17T19:58:13.940Z,70.50
2018-10-17T19:59:14.887Z,69.20
2018-10-17T20:00:14.888Z,73.20
2018-10-17T20:01:13.720Z,74.30
2018-10-17T20:02:15.006Z,73.50
2018-10-17T20:03:15.001Z,74.20
2018-10-17T20:04:14.011Z,71.60
2018-10-17T20:05:13.811Z,73.40
2018-10-17T20:06:13.668Z,73.20
2018-10-17T20:07:14.790Z,74.70
2018-10-17T20:08:13.659Z,72.20
2018-10-17T20:09:13.856Z,77.90
2018-10-17T20:10:14.840Z,75.90
2018-10-17T20:11:13.612Z,76.90
2018-10-17T20:12:13.740Z,76.80
2018-10-17T20:13:13.737Z,74.50
2018-10-17T20:14:13.801Z,76.40
2018-10-17T20:15:13.737Z,76.20
2018-10-17T20:16:14.630Z,76.70
2018-10-17T20:17:13.687Z,81.70
2018-10-17T20:18:14.732Z,81.20
2018-10-17T20:19:14.690Z,76.00
2018-10-17T20:20:13.652Z,76.70
2018-10-17T20:21:13.588Z,78.60
2018-10-17T20:22:13.700Z,78.30
2018-10-17T20:23:14.636Z,82.40
2018-10-17T20:24:13.607Z,75.00
2018-10-17T20:25:13.630Z,79.00
2018-10-17T20:26:13.452Z,78.30
2018-10-17T20:27:13.688Z,75.70
2018-10-17T20:28:13.614Z,80.80
2018-10-17T20:29:13.570Z,79.80
2018-10-17T20:30:13.553Z,79.50
2018-10-17T20:31:13.420Z,80.70
2018-10-17T20:32:13.526Z,78.90
2018-10-17T20:33:14.653Z,79.20
2018-10-17T20:34:14.622Z,76.90
2018-10-17T20:35:13.546Z,79.90
2018-10-17T20:36:13.368Z,78.80
2018-10-17T20:37:14.488Z,84.70
2018-10-17T20:38:14.460Z,81.20
2018-10-17T20:39:13.461Z,84.70
2018-10-17T20:40:13.549Z,88.40
2018-10-17T20:41:13.321Z,84.50
2018-10-17T20:42:14.539Z,85.20
2018-10-17T20:43:13.393Z,85.10
2018-10-17T20:44:14.522Z,81.00
2018-10-17T20:45:13.390Z,84.50
2018-10-17T20:46:13.320Z,85.20
2018-10-17T20:47:14.377Z,84.10
2018-10-17T20:48:13.386Z,85.60
2018-10-17T20:49:14.368Z,87.00
2018-10-17T20:50:16.463Z,84.90
2018-10-17T20:51:14.191Z,89.50
2018-10-17T20:52:13.421Z,83.60
2018-10-17T20:53:14.292Z,87.90
2018-10-17T20:54:13.339Z,88.00
2018-10-17T20:55:13.417Z,86.70
2018-10-17T20:56:13.233Z,90.00
2018-10-17T20:57:13.311Z,88.20
2018-10-17T20:58:14.354Z,89.40
2018-10-17T20:59:13.249Z,89.20
2018-10-17T21:00:14.272Z,84.90
2018-10-17T21:01:13.071Z,90.90
2018-10-17T21:02:13.211Z,93.00
2018-10-17T21:03:13.311Z,88.30
2018-10-17T21:04:13.203Z,90.70
2018-10-17T21:05:14.198Z,84.50
2018-10-17T21:06:13.032Z,86.80
2018-10-17T21:07:13.132Z,85.70
2018-10-17T21:08:13.223Z,89.60
2018-10-17T21:09:13.251Z,87.50
2018-10-17T21:10:13.130Z,93.20
2018-10-17T21:11:12.983Z,90.80
2018-10-17T21:12:13.087Z,98.70
2018-10-17T21:13:13.080Z,92.00
2018-10-17T21:14:13.207Z,88.30
2018-10-17T21:15:13.101Z,89.00
2018-10-17T21:16:12.912Z,93.80
2018-10-17T21:17:12.911Z,95.80
2018-10-17T21:18:12.888Z,86.90
2018-10-17T21:19:13.011Z,87.60
2018-10-17T21:20:13.131Z,86.70
2018-10-17T21:21:12.915Z,85.50
2018-10-17T21:22:12.983Z,84.00
2018-10-17T21:23:13.989Z,87.70
2018-10-17T21:24:13.975Z,87.50
2018-10-17T21:25:12.948Z,91.30
2018-10-17T21:26:12.918Z,90.90
2018-10-17T21:27:13.076Z,85.90
2018-10-17T21:28:12.910Z,82.80
2018-10-17T21:29:12.920Z,80.60
2018-10-17T21:30:12.909Z,80.30
2018-10-17T21:31:12.758Z,78.60
2018-10-17T21:32:12.961Z,67.60
2018-10-17T21:33:12.968Z,68.40
2018-10-17T21:34:12.855Z,64.40
2018-10-17T21:35:12.849Z,64.20
2018-10-17T21:36:12.713Z,62.40
2018-10-17T21:37:12.826Z,56.10
2018-10-17T21:38:12.837Z,57.60
2018-10-17T21:39:12.851Z,57.10
2018-10-17T21:40:13.818Z,55.50
2018-10-17T21:41:12.649Z,54.20
2018-10-17T21:42:13.807Z,57.50
2018-10-17T21:43:12.764Z,58.80
2018-10-17T21:44:12.862Z,57.90
2018-10-17T21:45:12.794Z,53.60
2018-10-17T21:46:12.580Z,48.30
2018-10-17T21:47:13.849Z,49.30
2018-10-17T21:48:13.779Z,47.10
2018-10-17T21:49:12.690Z,48.50
2018-10-17T21:50:12.742Z,47.40
2018-10-17T21:51:13.666Z,48.20
2018-10-17T21:52:12.659Z,50.20
2018-10-17T21:53:12.662Z,45.50
2018-10-17T21:54:12.659Z,43.70
2018-10-17T21:55:12.642Z,42.00
2018-10-17T21:56:13.606Z,42.00
2018-10-17T21:57:12.680Z,41.00
2018-10-17T21:58:12.603Z,41.80
2018-10-17T21:59:12.598Z,41.20
2018-10-17T22:00:12.583Z,40.90
2018-10-17T22:01:12.561Z,40.30
2018-10-17T22:02:12.731Z,39.70
2018-10-17T22:03:12.470Z,39.20
2018-10-17T22:04:12.538Z,39.20
2018-10-17T22:05:12.523Z,38.80
2018-10-17T22:06:13.534Z,39.90
2018-10-17T22:07:12.510Z,38.40
2018-10-17T22:08:12.527Z,38.70
2018-10-17T22:09:12.548Z,38.20
2018-10-17T22:10:12.470Z,37.00
2018-10-17T22:11:13.468Z,37.50
2018-10-17T22:12:13.485Z,35.70
2018-10-17T22:13:13.436Z,34.90
2018-10-17T22:14:13.500Z,35.00
2018-10-17T22:15:12.566Z,36.10
2018-10-17T22:16:12.409Z,34.10
2018-10-17T22:17:12.389Z,34.90
2018-10-17T22:18:13.462Z,38.30
2018-10-17T22:19:12.575Z,34.70
2018-10-17T22:20:12.494Z,36.40
2018-10-17T22:21:12.415Z,35.80
2018-10-17T22:22:12.344Z,34.40
2018-10-17T22:23:12.198Z,34.70
2018-10-17T22:24:12.323Z,32.50
2018-10-17T22:25:12.304Z,33.00
2018-10-17T22:26:12.438Z,33.40
2018-10-17T22:27:12.342Z,33.80
2018-10-17T22:28:13.280Z,33.40
2018-10-17T22:29:13.289Z,34.10
2018-10-17T22:30:13.272Z,33.00
2018-10-17T22:31:13.260Z,34.60
2018-10-17T22:32:13.340Z,36.10
2018-10-17T22:33:12.422Z,34.80
2018-10-17T22:34:12.222Z,35.20
2018-10-17T22:35:13.252Z,32.80
2018-10-17T22:36:13.216Z,33.20
2018-10-17T22:37:12.176Z,34.10
2018-10-17T22:38:12.198Z,33.70
2018-10-17T22:39:12.196Z,35.00
2018-10-17T22:40:12.163Z,33.50